Latest Coastal Weather Observations for Albany Airport

IDW60701

Issued at 8:43 pm WST Thursday 30 March 2017 (issued every 10 minutes, with the page automatically refreshed every 10 minutes)

About coastal observations | Map of coastal stations | Coastal observations for WA | Marine services | Other Formats
Station Details ID: 009999 Name: ALBANY AIRPORT Lat: -34.94 Lon: 117.82 Height: 68.4 m
Data from the previous 72 hours. | See also: Recent months at Albany Airport
Date/Time
WST
Temp
°C
Wind Pressure Rain since
9am
mm
Weather Cloud Vis
km
Sea
Height
m
Swell
Dir  Spd
kts
Gust
kts
hPa Trend Height
m
Period
s
Dir
30/08:30pm 11.8 CALM 0 0 1025.1 - 0.0 - - 10 - - - -
30/08:00pm 12.2 CALM 0 0 1024.8 - 0.0 - - 10 - - - -
30/07:30pm 12.7 CALM 0 1 1024.4 - 0.0 - - 10 - - - -
30/07:00pm 13.5 S 4 5 1024.2 - 0.0 - - 10 - - - -
30/06:30pm 15.2 SSE 4 6 1024.1 - 0.0 - - 10 - - - -
30/06:00pm 16.2 SE 5 7 1024.0 - 0.0 - - 10 - - - -
30/05:30pm 17.6 SSE 7 9 1023.8 - 0.0 - - 10 - - - -
30/05:00pm 18.4 SE 8 12 1023.4 - 0.0 - - 10 - - - -
30/04:30pm 19.2 SSE 9 12 1023.3 - 0.0 - - 10 - - - -
30/04:00pm 19.7 SSE 9 14 1023.1 - 0.0 - - 10 - - - -
30/03:30pm 19.8 SE 11 14 1023.0 - 0.0 - - 10 - - - -
30/03:00pm 20.5 SE 9 13 1022.9 - 0.0 - - 10 - - - -
30/02:30pm 20.8 SE 9 13 1022.7 - 0.0 - - 10 - - - -
30/02:00pm 21.9 ESE 6 11 1022.8 - 0.0 - - 10 - - - -
30/01:30pm 22.4 NE 5 10 1023.0 - 0.0 - - 10 - - - -
30/01:00pm 21.4 NNE 5 8 1023.4 - 0.0 - - 10 - - - -
30/12:30pm 20.8 NE 4 7 1023.8 - 0.0 - - 10 - - - -
30/12:00pm 19.6 E 5 6 1024.2 - 0.0 - - 10 - - - -
30/11:30am 18.5 E 3 5 1024.7 - 0.0 - - 10 - - - -
30/11:00am 18.4 NE 4 6 1025.2 - 0.0 - - 10 - - - -
30/10:30am 17.6 SE 3 5 1025.6 - 0.0 - - 10 - - - -
30/10:00am 16.7 NE 3 6 1026.0 - 0.0 - - 10 - - - -
30/09:30am 15.8 NE 4 6 1026.4 - 0.0 - - 10 - - - -
30/09:00am 14.1 N 2 5 1026.7 - 0.2 - - 10 - - - -
30/08:30am 12.6 CALM 0 1 1027.2 - 0.2 - - 10 - - - -
30/08:00am 10.8 NNE 3 5 1027.1 - 0.2 - - 10 - - - -
30/07:30am 8.4 SW 3 4 1027.2 - 0.2 - Mostly clear 10 - - - -
30/07:00am 6.6 CALM 0 0 1026.9 - 0.2 - Mostly clear 10 - - - -
30/06:30am 5.0 N 2 3 1026.9 - 0.2 - - 10 - - - -
30/06:00am 5.3 NNE 4 5 1026.8 - 0.2 - - 10 - - - -
30/05:30am 5.4 ENE 4 5 1026.8 - 0.2 - - 10 - - - -
30/05:00am 6.3 NE 5 6 1026.5 - 0.2 - - 10 - - - -
30/04:30am 5.2 NE 5 6 1026.5 - 0.2 - - 10 - - - -
30/04:00am 4.9 NE 6 6 1026.4 - 0.2 - - 10 - - - -
30/03:30am 4.4 NE 5 6 1026.3 - 0.2 - - 10 - - - -
30/03:00am 4.8 NE 5 5 1026.7 - 0.2 - - 10 - - - -
30/02:30am 5.5 NE 4 5 1027.0 - 0.2 - - 10 - - - -
30/02:00am 6.3 NE 4 5 1027.1 - 0.2 - - 10 - - - -
30/01:30am 7.1 NE 4 4 1027.2 - 0.2 - - 10 - - - -
30/01:00am 6.3 NE 4 4 1027.3 - 0.2 - - 10 - - - -
30/12:30am 6.8 NNE 5 5 1027.5 - 0.2 - - 10 - - - -
30/12:00am 6.1 NNE 4 5 1027.6 - 0.2 - - 10 - - - -
 
Date/Time
WST
Temp
°C
Wind Pressure Rain since
9am
mm
Weather Cloud Vis
km
Sea
Height
m
Swell
Dir  Spd
kts
Gust
kts
hPa Trend Height
m
Period
s
Dir
29/11:30pm 7.2 CALM 0 0 1027.7 - 0.2 - - 10 - - - -
29/11:00pm 7.8 ENE 4 5 1027.9 - 0.2 - - 10 - - - -
29/10:30pm 8.4 NNE 3 7 1028.1 - 0.2 - - 10 - - - -
29/10:00pm 8.4 ENE 5 5 1028.4 - 0.2 - - 10 - - - -
29/09:30pm 9.3 ENE 4 5 1028.4 - 0.2 - - 10 - - - -
29/09:00pm 8.6 NE 5 5 1028.4 - 0.2 - - 10 - - - -
29/08:30pm 9.0 ENE 5 6 1028.4 - 0.2 - - 10 - - - -
29/08:00pm 9.7 ENE 6 7 1028.3 - 0.2 - - 10 - - - -
29/07:30pm 10.3 ENE 6 6 1028.0 - 0.2 - - 10 - - - -
29/07:00pm 11.1 E 6 7 1027.7 - 0.2 - - 10 - - - -
29/06:30pm 11.7 E 6 7 1027.7 - 0.2 - - 10 - - - -
29/06:00pm 13.6 ESE 7 10 1027.6 - 0.2 - - 10 - - - -
29/05:30pm 14.7 SE 9 11 1027.4 - 0.2 - Partly cloudy 10 - - - -
29/05:00pm 15.6 SE 10 15 1027.5 - 0.2 - Partly cloudy 10 - - - -
29/04:30pm 16.5 SE 9 13 1027.2 - 0.2 - Partly cloudy 10 - - - -
29/04:00pm 16.4 ESE 9 13 1027.1 - 0.2 - - 10 - - - -
29/03:30pm 16.4 SE 9 12 1027.2 - 0.2 - - 10 - - - -
29/03:00pm 16.8 ESE 9 11 1027.2 - 0.2 - Mostly clear 10 - - - -
29/02:30pm 17.1 SE 8 13 1027.3 - 0.2 - Partly cloudy 10 - - - -
29/02:00pm 16.5 SE 8 12 1027.5 - 0.2 - Partly cloudy 10 - - - -
29/01:30pm 15.9 SSE 9 13 1027.6 - 0.2 - Partly cloudy 10 - - - -
29/01:00pm 17.0 ESE 7 11 1027.7 - 0.2 - Partly cloudy 10 - - - -
29/12:30pm 16.2 SE 9 12 1027.8 - 0.2 - Partly cloudy 10 - - - -
29/12:00pm 16.1 SE 8 12 1027.8 - 0.2 - Mostly cloudy 10 - - - -
29/11:30am 17.1 SE 8 13 1028.0 - 0.2 - Partly cloudy 10 - - - -
29/11:00am 16.1 SSE 8 14 1028.1 - 0.0 - Partly cloudy 10 - - - -
29/10:30am 15.2 S 9 13 1028.1 - 0.0 - Partly cloudy 10 - - - -
29/10:00am 15.1 S 9 13 1028.0 - 0.0 - Partly cloudy 10 - - - -
29/09:30am 15.4 S 7 11 1027.7 - 0.0 - Partly cloudy 10 - - - -
29/09:00am 15.3 SSE 6 9 1027.4 - 0.6 - Mostly clear 10 - - - -
29/08:30am 15.0 SSE 9 12 1027.1 - 0.6 - Mostly clear 10 - - - -
29/08:00am 14.5 SSE 6 7 1026.8 - 0.6 - Partly cloudy 10 - - - -
29/07:30am 12.1 SSE 3 5 1026.4 - 0.6 - Partly cloudy 10 - - - -
29/07:00am 10.8 SSE 3 5 1025.9 - 0.6 - Partly cloudy 10 - - - -
29/06:30am 11.2 S 3 4 1025.4 - 0.6 - Cloudy 10 - - - -
29/06:00am 11.3 SSE 5 7 1025.3 - 0.6 - Mostly clear 10 - - - -
29/05:30am 12.0 SSE 5 7 1025.0 - 0.6 - Cloudy 10 - - - -
29/05:00am 11.8 SSE 6 8 1024.6 - 0.6 - Partly cloudy 10 - - - -
29/04:30am 12.5 S 7 10 1024.3 - 0.6 - Partly cloudy 10 - - - -
29/04:00am 12.8 S 7 10 1023.9 - 0.6 - Partly cloudy 10 - - - -
29/03:30am 13.0 S 9 13 1023.6 - 0.6 - Partly cloudy 10 - - - -
29/03:00am 13.7 S 11 15 1023.3 - 0.6 - Cloudy 10 - - - -
29/02:30am 13.8 SSW 8 13 1023.3 - 0.6 - Partly cloudy 10 - - - -
29/02:00am 12.7 SSW 9 12 1023.3 - 0.6 - Partly cloudy 10 - - - -
29/01:30am 13.5 SSW 9 13 1023.2 - 0.6 - Partly cloudy 10 - - - -
29/01:00am 12.7 SSW 9 14 1023.2 - 0.6 - - 10 - - - -
29/12:30am 13.3 SSW 13 17 1022.9 - 0.6 - Partly cloudy 10 - - - -
29/12:00am 13.8 SSW 12 16 1022.7 - 0.6 - Partly cloudy 10 - - - -
 
Date/Time
WST
Temp
°C
Wind Pressure Rain since
9am
mm
Weather Cloud Vis
km
Sea
Height
m
Swell
Dir  Spd
kts
Gust
kts
hPa Trend Height
m
Period
s
Dir
28/11:30pm 14.1 SSW 11 18 1022.2 - 0.6 - Partly cloudy 10 - - - -
28/11:00pm 13.4 SSW 11 16 1022.0 - 0.6 - Partly cloudy 10 - - - -
28/10:30pm 14.1 SSW 11 15 1021.8 - 0.6 - Partly cloudy 10 - - - -
28/10:00pm 14.0 SSW 13 18 1021.8 - 0.6 - Partly cloudy 10 - - - -
28/09:30pm 14.4 SSW 13 21 1021.5 - 0.6 - Partly cloudy 10 - - - -
28/09:00pm 14.3 SSW 11 16 1021.4 - 0.6 - Mostly cloudy 10 - - - -
28/08:30pm 14.6 SSW 13 19 1021.1 - 0.6 - Partly cloudy 10 - - - -
28/08:00pm 14.7 SSW 13 20 1020.5 - 0.6 - Partly cloudy 10 - - - -
28/07:30pm 15.1 SW 14 21 1020.0 - 0.6 - Partly cloudy 10 - - - -
28/07:00pm 15.6 SW 13 23 1019.4 - 0.6 - Cloudy 10 - - - -
28/06:30pm 15.6 SW 13 20 1019.1 - 0.6 - Partly cloudy 10 - - - -
28/06:00pm 15.6 SW 12 18 1018.7 - 0.6 - Cloudy 10 - - - -
28/05:30pm 15.6 WSW 11 15 1018.2 - 0.6 - Cloudy 10 - - - -
28/05:08pm 15.4 SW 15 24 1017.9 - 0.6 - Partly cloudy 10 - - - -
28/05:00pm 15.4 SW 13 21 1017.9 - 0.6 - Partly cloudy 9 - - - -
28/04:43pm 15.2 SW 14 21 1017.5 - 0.6 - Partly cloudy 6 - - - -
28/04:38pm 15.6 SW 12 16 1017.4 - 0.6 - Partly cloudy 10 - - - -
28/04:30pm 15.6 SW 13 18 1017.3 - 0.6 - Partly cloudy 9 - - - -
28/04:27pm 15.6 SW 14 20 1017.3 - 0.6 - Partly cloudy 5 - - - -
28/04:08pm 15.5 SW 13 20 1017.0 - 0.6 - Partly cloudy 5 - - - -
28/04:07pm 15.6 SW 14 21 1017.0 - 0.6 - Partly cloudy 5 - - - -
28/04:00pm 15.7 WSW 14 22 1017.0 - 0.4 - Partly cloudy 5 - - - -
28/03:57pm 15.9 WSW 13 22 1016.9 - 0.4 - Partly cloudy 5 - - - -
28/03:43pm 16.4 W 19 30 1016.7 - 0.0 - Partly cloudy 5 - - - -
28/03:41pm 17.1 W 19 30 1016.6 - 0.0 - Partly cloudy 10 - - - -
28/03:30pm 18.5 W 21 29 1016.4 - 0.0 - Partly cloudy 10 - - - -
28/03:09pm 18.6 WSW 17 27 1016.3 - 0.0 - Partly cloudy 10 - - - -
28/03:00pm 18.9 WSW 18 27 1016.2 - 0.0 - Cloudy 10 - - - -
28/02:30pm 19.9 WSW 19 28 1015.9 - 0.0 - Partly cloudy 10 - - - -
28/02:00pm 19.6 WSW 16 24 1015.8 - 0.0 - Mostly clear 10 - - - -
28/01:30pm 20.3 W 19 26 1015.9 - 0.0 - Mostly clear 10 - - - -
28/12:48pm 19.9 WSW 18 30 1016.0 - 0.0 - Mostly clear 10 - - - -
28/12:30pm 19.4 W 19 28 1016.0 - 0.0 - Mostly clear 10 - - - -
28/12:00pm 18.9 W 16 22 1016.3 - 0.0 - Cloudy 10 - - - -
28/11:30am 17.5 W 18 28 1016.6 - 0.0 Showers Mostly clear 10 - - - -
28/11:00am 18.5 WSW 20 31 1016.7 - 0.0 - Mostly clear 10 - - - -
28/10:30am 18.6 WSW 14 19 1017.0 - 0.0 - Mostly clear 10 - - - -
28/10:00am 18.6 W 13 20 1017.0 - 0.0 - Mostly clear 10 - - - -
28/09:30am 17.8 W 12 18 1016.8 - 0.0 - Mostly clear 10 - - - -
28/09:00am 17.4 W 12 18 1016.8 - 0.0 - Mostly cloudy 10 - - - -
28/08:30am 16.7 W 10 14 1016.8 - 0.0 - Mostly clear 10 - - - -
28/08:00am 16.1 W 10 13 1016.7 - 0.0 - Mostly clear 10 - - - -
28/07:30am 15.5 WNW 8 11 1016.8 - 0.0 - Mostly clear 10 - - - -
28/07:00am 15.0 WNW 8 11 1016.7 - 0.0 - Mostly clear 10 - - - -
28/06:30am 15.1 WNW 7 11 1016.5 - 0.0 - Cloudy 10 - - - -
28/06:00am 15.1 WNW 8 10 1016.7 - 0.0 - Cloudy 10 - - - -
28/05:30am 14.8 WNW 9 13 1016.6 - 0.0 - Cloudy 10 - - - -
28/05:00am 14.9 WNW 8 11 1016.6 - 0.0 - Partly cloudy 10 - - - -
28/04:40am 14.9 WNW 8 10 1016.6 - 0.0 - Partly cloudy 10 - - - -
28/04:30am 14.8 NW 9 11 1016.5 - 0.0 - Partly cloudy 10 - - - -
28/04:15am 14.8 NW 10 14 1016.6 - 0.0 - Partly cloudy 10 - - - -
28/04:00am 15.1 NW 11 16 1016.4 - 0.0 - Partly cloudy 10 - - - -
28/03:30am 15.2 NW 9 13 1016.3 - 0.0 - Partly cloudy 10 - - - -
28/03:00am 15.2 WNW 10 13 1016.6 - 0.0 - Cloudy 10 - - - -
28/02:30am 15.1 NW 9 11 1016.8 - 0.0 - Partly cloudy 10 - - - -
28/02:00am 15.3 NW 11 16 1016.8 - 0.0 - Partly cloudy 10 - - - -
28/01:30am 15.5 WNW 8 11 1016.9 - 0.0 - Partly cloudy 10 - - - -
28/01:00am 15.6 WNW 9 12 1017.2 - 0.0 - Partly cloudy 10 - - - -
28/12:30am 15.8 WNW 10 13 1017.2 - 0.0 - Cloudy 10 - - - -
28/12:00am 16.0 WNW 10 14 1017.5 - 0.0 - Cloudy 10 - - - -
 
Date/Time
WST
Temp
°C
Wind Pressure Rain since
9am
mm
Weather Cloud Vis
km
Sea
Height
m
Swell
Dir  Spd
kts
Gust
kts
hPa Trend Height
m
Period
s
Dir
27/11:30pm 15.9 WNW 9 13 1017.8 - 0.0 - Cloudy 10 - - - -
27/11:00pm 16.0 WNW 11 16 1017.8 - 0.0 - Cloudy 10 - - - -
27/10:30pm 16.0 WNW 9 14 1018.1 - 0.0 - Cloudy 10 - - - -
27/10:00pm 16.0 WNW 8 11 1018.4 - 0.0 - Cloudy 10 - - - -
27/09:30pm 16.0 WNW 8 11 1018.5 - 0.0 - Cloudy 10 - - - -
27/09:00pm 16.1 WNW 8 11 1018.6 - 0.0 - Cloudy 10 - - - -

Other Formats:

Comma delimited format used in spreadsheet applications
http://www.bom.gov.au/fwo/IDW60701/IDW60701.94802.axf

JavaScript Object Notation format (JSON) in row-major order
http://www.bom.gov.au/fwo/IDW60701/IDW60701.94802.json